Time;durP1;ratioP1;P1;durP2;ratioP2;P2;SDS_P1;SDS_P2;PMS_P1;PMS_P2;Temp;Humidity;BMP_temperature;BMP_pressure;BME280_temperature;BME280_humidity;BME280_pressure;Samples;Min_cycle;Max_cycle;Signal;HPM_P1;HPM_P2
2023/03/05 00:00:45;;;;;;;7.97;1.58;;;7.60;78.70;;;;;;5113946;28;20024;-73
2023/03/05 00:03:11;;;;;;;4.07;1.35;;;7.60;78.80;;;;;;5114081;28;20031;-72
2023/03/05 00:05:37;;;;;;;10.88;1.35;;;7.60;78.90;;;;;;5113074;28;20048;-73
2023/03/05 00:08:02;;;;;;;4.18;1.20;;;7.60;79.00;;;;;;5113766;28;20039;-73
2023/03/05 00:10:28;;;;;;;5.25;1.05;;;7.50;79.20;;;;;;5113756;28;20020;-73
2023/03/05 00:12:54;;;;;;;4.72;1.08;;;7.50;79.50;;;;;;5113759;28;20369;-73
2023/03/05 00:15:19;;;;;;;8.65;1.50;;;7.50;79.80;;;;;;5113727;28;20050;-73
2023/03/05 00:17:45;;;;;;;5.22;1.48;;;7.40;80.30;;;;;;5112744;28;20031;-73
2023/03/05 00:20:12;;;;;;;3.95;1.00;;;7.30;80.30;;;;;;5113690;28;20028;-73
2023/03/05 00:22:37;;;;;;;7.57;1.65;;;7.30;80.70;;;;;;5113692;28;20034;-73
2023/03/05 00:25:04;;;;;;;6.95;1.38;;;7.30;81.80;;;;;;5112751;28;20059;-73
2023/03/05 00:27:29;;;;;;;4.55;1.20;;;7.20;81.10;;;;;;5113573;28;20106;-72
2023/03/05 00:29:55;;;;;;;8.43;1.58;;;7.20;81.10;;;;;;5112453;28;20122;-73
2023/03/05 00:32:21;;;;;;;5.82;1.40;;;7.30;81.30;;;;;;5113352;28;20056;-73
2023/03/05 00:34:48;;;;;;;7.60;1.83;;;7.20;81.50;;;;;;5112587;28;20024;-73
2023/03/05 00:37:14;;;;;;;5.05;1.85;;;7.20;82.30;;;;;;5113680;28;20040;-72
2023/03/05 00:39:40;;;;;;;4.55;1.50;;;7.20;81.90;;;;;;5112440;28;20204;-72
2023/03/05 00:42:06;;;;;;;4.18;1.50;;;7.10;81.80;;;;;;5113596;28;20028;-73
2023/03/05 00:44:32;;;;;;;3.22;1.60;;;7.20;81.90;;;;;;5112547;28;20025;-73
2023/03/05 00:46:57;;;;;;;5.47;2.30;;;7.20;81.80;;;;;;5113367;28;20044;-73
2023/03/05 00:49:23;;;;;;;7.25;2.78;;;7.20;82.00;;;;;;5113412;28;20036;-73
2023/03/05 00:51:48;;;;;;;6.28;2.42;;;7.20;81.90;;;;;;5113322;28;20024;-72
2023/03/05 00:54:14;;;;;;;7.00;1.73;;;7.20;81.90;;;;;;5112417;28;20035;-73
2023/03/05 00:56:40;;;;;;;7.15;1.90;;;7.20;81.90;;;;;;5113321;28;20032;-72
2023/03/05 00:59:05;;;;;;;6.97;1.92;;;7.10;82.00;;;;;;5113317;28;20042;-73
2023/03/05 01:01:31;;;;;;;6.40;1.50;;;7.20;82.00;;;;;;5113274;28;20044;-73
2023/03/05 01:03:58;;;;;;;7.18;1.50;;;7.20;81.90;;;;;;5113262;28;20420;-73
2023/03/05 01:06:24;;;;;;;3.85;1.90;;;7.20;81.80;;;;;;5112219;28;20024;-73
2023/03/05 01:08:49;;;;;;;5.47;1.67;;;7.20;82.00;;;;;;5113143;28;20035;-73
2023/03/05 01:11:15;;;;;;;6.45;1.42;;;7.20;82.10;;;;;;5112095;28;20126;-73
2023/03/05 01:13:41;;;;;;;4.25;1.75;;;7.20;82.50;;;;;;5113162;28;20029;-73
2023/03/05 01:16:07;;;;;;;7.50;1.60;;;7.10;82.60;;;;;;5113112;28;20035;-73
2023/03/05 01:18:33;;;;;;;6.28;1.60;;;7.10;82.70;;;;;;5113115;28;20048;-72
2023/03/05 01:20:59;;;;;;;9.35;1.80;;;7.10;82.60;;;;;;5112208;28;20376;-73
2023/03/05 01:23:24;;;;;;;6.70;1.88;;;7.10;82.50;;;;;;5112138;28;20039;-73
2023/03/05 01:25:57;;;;;;;3.85;1.23;;;7.20;82.40;;;;;;5113043;28;20054;-73
2023/03/05 01:28:23;;;;;;;5.05;1.20;;;7.20;82.30;;;;;;5113048;28;20103;-72
2023/03/05 01:30:49;;;;;;;5.07;1.17;;;7.20;82.10;;;;;;5112780;28;20047;-73
2023/03/05 01:33:15;;;;;;;4.28;1.08;;;7.20;82.00;;;;;;5113027;28;20024;-72
2023/03/05 01:35:41;;;;;;;3.55;1.48;;;7.20;81.90;;;;;;5112990;28;20024;-73
2023/03/05 01:38:06;;;;;;;9.65;1.63;;;7.20;81.80;;;;;;5113807;28;20034;-73
2023/03/05 01:40:32;;;;;;;2.80;1.20;;;7.10;81.70;;;;;;5115709;28;20036;-73
2023/03/05 01:43:13;;;;;;;5.20;1.55;;;7.20;81.80;;;;;;5116598;28;20091;-72
2023/03/05 01:46:16;;;;;;;4.60;1.50;;;7.20;81.80;;;;;;5116593;28;20068;-73
2023/03/05 01:48:44;;;;;;;5.38;1.42;;;7.20;81.90;;;;;;5116484;28;20125;-73
2023/03/05 01:51:10;;;;;;;7.90;1.67;;;7.00;82.30;;;;;;5116365;28;20034;-73
2023/03/05 01:53:36;;;;;;;6.00;1.58;;;7.00;82.60;;;;;;5115654;28;20025;-72
2023/03/05 01:56:02;;;;;;;4.15;1.88;;;6.90;82.60;;;;;;5116341;28;20035;-72
2023/03/05 01:58:28;;;;;;;8.25;1.52;;;7.00;82.70;;;;;;5116316;28;20026;-72
2023/03/05 02:00:54;;;;;;;5.72;1.95;;;7.00;82.70;;;;;;5115371;28;20024;-73
2023/03/05 02:03:22;;;;;;;6.25;1.83;;;6.90;82.80;;;;;;5115293;28;20088;-73
2023/03/05 02:05:48;;;;;;;9.00;1.95;;;6.90;82.90;;;;;;5115165;28;20032;-72
2023/03/05 02:08:18;;;;;;;7.07;1.70;;;6.90;82.90;;;;;;5116029;28;20028;-72
2023/03/05 02:10:51;;;;;;;3.67;1.50;;;6.90;83.10;;;;;;5116044;28;20028;-72
2023/03/05 02:13:23;;;;;;;4.63;2.08;;;6.80;83.50;;;;;;5116069;28;20024;-72
2023/03/05 02:15:49;;;;;;;7.23;1.73;;;6.70;83.40;;;;;;5115989;28;20020;-73
2023/03/05 02:18:17;;;;;;;5.05;1.90;;;6.70;83.60;;;;;;5115872;28;20263;-73
2023/03/05 02:20:56;;;;;;;7.00;2.05;;;6.70;83.60;;;;;;5114926;28;20031;-73
2023/03/05 02:23:32;;;;;;;5.75;1.45;;;6.70;83.60;;;;;;5116012;28;20557;-73
2023/03/05 02:25:58;;;;;;;3.28;1.58;;;6.70;83.50;;;;;;5115861;28;20028;-73
2023/03/05 02:28:29;;;;;;;3.10;1.23;;;6.70;83.50;;;;;;5115703;28;20433;-72
2023/03/05 02:30:55;;;;;;;8.80;1.65;;;6.60;83.40;;;;;;5115187;28;20040;-73
2023/03/05 02:33:21;;;;;;;6.97;1.80;;;6.60;83.30;;;;;;5115692;28;20032;-73
2023/03/05 02:35:47;;;;;;;6.20;1.50;;;6.70;83.40;;;;;;5114631;28;20024;-73
2023/03/05 02:38:15;;;;;;;4.28;1.05;;;6.60;83.50;;;;;;5115522;28;20031;-73
2023/03/05 02:40:41;;;;;;;4.47;1.15;;;6.60;83.50;;;;;;5114484;28;20028;-72
2023/03/05 02:43:07;;;;;;;4.10;1.67;;;6.60;83.40;;;;;;5115481;28;20071;-73
2023/03/05 02:45:33;;;;;;;2.92;1.48;;;6.70;83.40;;;;;;5115417;28;20024;-72
2023/03/05 02:47:59;;;;;;;4.88;1.38;;;6.70;83.20;;;;;;5115324;28;20024;-73
2023/03/05 02:50:26;;;;;;;3.05;1.30;;;6.70;83.10;;;;;;5115217;28;20035;-73
2023/03/05 02:52:52;;;;;;;7.45;1.90;;;6.70;83.00;;;;;;5115229;28;20028;-73
2023/03/05 02:55:18;;;;;;;6.78;1.55;;;6.70;83.20;;;;;;5097411;28;20028;-73
2023/03/05 02:57:44;;;;;;;6.78;1.77;;;6.60;83.40;;;;;;5115125;28;20028;-72
2023/03/05 03:00:10;;;;;;;4.68;1.38;;;6.60;83.20;;;;;;5115092;28;20016;-72
2023/03/05 03:02:36;;;;;;;3.95;1.50;;;6.70;83.40;;;;;;5114978;28;20024;-73
2023/03/05 03:05:02;;;;;;;6.85;1.65;;;6.60;83.30;;;;;;5115010;28;20024;-73
2023/03/05 03:07:27;;;;;;;6.22;1.90;;;6.60;83.40;;;;;;5114037;28;20035;-73
2023/03/05 03:09:53;;;;;;;7.75;1.70;;;6.60;83.60;;;;;;5114868;28;20031;-73
2023/03/05 03:12:19;;;;;;;4.65;2.03;;;6.60;83.60;;;;;;5114793;28;20054;-73
2023/03/05 03:14:44;;;;;;;7.95;1.92;;;6.60;83.60;;;;;;5114805;28;20032;-73
2023/03/05 03:17:13;;;;;;;2.60;1.27;;;6.60;83.50;;;;;;5114814;28;20034;-73
2023/03/05 03:19:39;;;;;;;4.15;1.35;;;6.60;83.40;;;;;;5114673;28;20020;-73
2023/03/05 03:22:06;;;;;;;6.35;1.50;;;6.70;83.70;;;;;;5114691;28;20024;-73
2023/03/05 03:24:33;;;;;;;5.75;2.00;;;6.60;83.70;;;;;;5114564;28;20028;-72
2023/03/05 03:26:59;;;;;;;5.13;1.63;;;6.50;83.80;;;;;;5114698;28;20028;-72
2023/03/05 03:29:25;;;;;;;4.85;1.85;;;6.50;84.10;;;;;;5114538;28;20060;-72
2023/03/05 03:31:50;;;;;;;4.60;1.67;;;6.50;84.00;;;;;;5114282;28;20048;-72
2023/03/05 03:34:16;;;;;;;3.78;1.77;;;6.60;84.90;;;;;;5114456;28;20024;-72
2023/03/05 03:36:43;;;;;;;5.28;1.80;;;6.60;84.20;;;;;;5114380;28;20099;-72
2023/03/05 03:39:09;;;;;;;6.05;2.03;;;6.60;84.40;;;;;;5114508;28;20038;-73
2023/03/05 03:41:40;;;;;;;7.47;1.63;;;6.50;84.60;;;;;;5114322;28;20032;-73
2023/03/05 03:44:07;;;;;;;5.60;2.03;;;6.50;84.60;;;;;;5113553;28;20115;-72
2023/03/05 03:46:33;;;;;;;5.20;1.70;;;6.50;84.50;;;;;;5114209;28;20024;-73
2023/03/05 03:49:00;;;;;;;5.30;2.38;;;6.50;84.50;;;;;;5114294;28;20040;-73
2023/03/05 03:51:25;;;;;;;4.90;1.70;;;6.60;84.60;;;;;;5114027;28;20103;-73
2023/03/05 03:53:51;;;;;;;6.80;1.95;;;6.60;84.60;;;;;;5114123;28;20024;-73
2023/03/05 03:56:17;;;;;;;6.63;1.80;;;6.60;84.40;;;;;;5114065;28;20020;-72
2023/03/05 03:58:42;;;;;;;8.18;2.50;;;6.60;84.50;;;;;;5114025;28;20031;-72
2023/03/05 04:01:08;;;;;;;3.38;2.05;;;6.60;84.70;;;;;;5112667;28;20032;-73
2023/03/05 04:03:34;;;;;;;5.32;2.58;;;6.60;84.60;;;;;;5112893;28;20043;-73
2023/03/05 04:05:59;;;;;;;3.47;1.73;;;6.60;84.60;;;;;;5113921;28;20047;-73
2023/03/05 04:08:25;;;;;;;8.40;2.03;;;6.60;84.70;;;;;;5113836;28;20032;-72
2023/03/05 04:10:51;;;;;;;6.55;2.00;;;6.60;84.70;;;;;;5113787;28;20076;-72
2023/03/05 04:13:16;;;;;;;5.28;2.28;;;6.60;84.70;;;;;;5112859;28;20020;-73
2023/03/05 04:15:42;;;;;;;4.07;1.70;;;6.50;84.80;;;;;;5112816;28;20024;-72
2023/03/05 04:18:09;;;;;;;5.57;1.63;;;6.50;84.90;;;;;;5113706;28;20024;-73
2023/03/05 04:20:35;;;;;;;5.93;1.85;;;6.40;85.30;;;;;;5113709;28;20034;-73
2023/03/05 04:23:01;;;;;;;5.65;2.00;;;6.40;85.30;;;;;;5113753;28;20043;-73
2023/03/05 04:25:27;;;;;;;6.50;1.60;;;6.40;85.40;;;;;;5113653;28;20043;-72
2023/03/05 04:27:52;;;;;;;8.18;2.00;;;6.40;85.40;;;;;;5113615;28;20020;-73
2023/03/05 04:30:18;;;;;;;7.68;1.88;;;6.40;85.60;;;;;;5113643;28;20467;-73
2023/03/05 04:32:44;;;;;;;6.70;1.90;;;6.40;85.70;;;;;;5112442;28;20058;-73
2023/03/05 04:35:10;;;;;;;6.50;1.60;;;6.30;85.90;;;;;;5112751;28;20092;-73
2023/03/05 04:37:35;;;;;;;6.50;2.10;;;6.30;86.00;;;;;;5112601;28;20035;-73
2023/03/05 04:40:01;;;;;;;4.22;1.52;;;6.30;86.00;;;;;;5112532;28;20095;-72
2023/03/05 04:42:27;;;;;;;10.68;2.05;;;6.30;86.20;;;;;;5113483;28;20016;-72
2023/03/05 04:44:52;;;;;;;8.00;2.30;;;6.30;86.20;;;;;;5113465;28;20391;-73
2023/03/05 04:47:18;;;;;;;6.55;2.00;;;6.30;86.30;;;;;;5113430;28;20050;-73
2023/03/05 04:49:44;;;;;;;5.07;1.60;;;6.20;86.30;;;;;;5113439;28;20058;-73
2023/03/05 04:52:11;;;;;;;7.15;1.85;;;6.10;86.60;;;;;;5112347;28;20028;-73
2023/03/05 04:54:37;;;;;;;5.50;1.88;;;6.20;86.90;;;;;;5113404;28;20078;-73
2023/03/05 04:57:02;;;;;;;3.17;1.70;;;6.20;86.90;;;;;;5113335;28;20016;-73
2023/03/05 04:59:28;;;;;;;4.35;1.73;;;6.20;86.90;;;;;;5113315;28;20024;-73
2023/03/05 05:01:54;;;;;;;6.57;1.88;;;6.20;87.00;;;;;;5113280;28;20024;-73
2023/03/05 05:04:20;;;;;;;5.63;2.00;;;6.10;87.00;;;;;;5113298;28;20028;-73
2023/03/05 05:06:45;;;;;;;7.60;1.45;;;6.10;87.10;;;;;;5113231;28;20039;-72
2023/03/05 05:09:11;;;;;;;6.10;2.03;;;6.20;87.00;;;;;;5113151;28;20053;-73
2023/03/05 05:11:37;;;;;;;5.10;1.60;;;6.20;87.10;;;;;;5113154;28;20039;-73
2023/03/05 05:14:03;;;;;;;3.65;1.23;;;6.20;86.90;;;;;;5115645;28;20028;-72
2023/03/05 05:16:28;;;;;;;5.00;1.52;;;6.20;86.80;;;;;;5116154;28;20020;-72
2023/03/05 05:18:54;;;;;;;3.42;1.40;;;6.20;86.80;;;;;;5117080;28;20024;-73
2023/03/05 05:21:20;;;;;;;3.50;1.80;;;6.20;86.60;;;;;;5116091;28;20040;-72
2023/03/05 05:23:45;;;;;;;5.47;1.35;;;6.20;86.60;;;;;;5116046;28;20083;-73
2023/03/05 05:26:15;;;;;;;5.15;1.02;;;6.20;86.50;;;;;;5116945;28;20039;-73
2023/03/05 05:28:42;;;;;;;3.42;1.40;;;6.20;86.60;;;;;;5115849;28;20451;-73
2023/03/05 05:31:09;;;;;;;6.18;1.40;;;6.20;86.50;;;;;;5116721;28;20044;-73
2023/03/05 05:33:35;;;;;;;5.70;1.42;;;6.20;86.60;;;;;;5116875;28;20017;-73
2023/03/05 05:36:03;;;;;;;7.80;1.45;;;6.20;86.60;;;;;;5116738;28;20039;-72
2023/03/05 05:38:29;;;;;;;8.32;1.63;;;6.20;86.50;;;;;;5116646;28;20028;-73
2023/03/05 05:41:00;;;;;;;6.32;1.80;;;6.20;86.70;;;;;;5115654;28;20040;-73
2023/03/05 05:43:25;;;;;;;5.15;1.67;;;6.20;86.60;;;;;;5115783;28;20054;-72
2023/03/05 05:45:51;;;;;;;3.78;1.50;;;6.20;86.70;;;;;;5115611;28;20036;-72
2023/03/05 05:48:16;;;;;;;7.72;1.50;;;6.20;86.60;;;;;;5116523;28;20042;-73
2023/03/05 05:50:42;;;;;;;4.88;1.27;;;6.20;86.50;;;;;;5116436;28;20024;-73
2023/03/05 05:53:07;;;;;;;4.40;1.83;;;6.20;86.60;;;;;;5116401;28;20038;-72
2023/03/05 05:55:33;;;;;;;5.45;1.63;;;6.20;86.80;;;;;;5115436;28;20054;-73
2023/03/05 05:57:59;;;;;;;5.28;1.90;;;6.10;86.60;;;;;;5116487;28;20028;-72
2023/03/05 06:00:24;;;;;;;4.60;2.20;;;6.10;87.00;;;;;;5115392;28;20020;-72
2023/03/05 06:02:50;;;;;;;4.18;1.60;;;6.10;87.00;;;;;;5115301;28;20103;-72
2023/03/05 06:05:16;;;;;;;6.63;1.95;;;6.10;87.10;;;;;;5098289;28;20040;-72
2023/03/05 06:07:42;;;;;;;7.35;2.35;;;6.10;87.20;;;;;;5115167;28;20100;-72
2023/03/05 06:10:09;;;;;;;6.63;1.70;;;6.00;87.20;;;;;;5115117;28;20032;-73
2023/03/05 06:12:35;;;;;;;3.95;1.67;;;6.00;87.30;;;;;;5116032;28;20024;-72
2023/03/05 06:15:00;;;;;;;6.78;2.45;;;6.00;87.30;;;;;;5116020;28;20084;-72
2023/03/05 06:17:27;;;;;;;4.28;1.75;;;6.10;87.60;;;;;;5116112;28;20020;-72
2023/03/05 06:19:54;;;;;;;7.55;2.00;;;6.00;87.50;;;;;;5115922;28;20020;-72
2023/03/05 06:22:19;;;;;;;6.35;2.75;;;6.00;87.80;;;;;;5114936;28;20024;-72
2023/03/05 06:24:45;;;;;;;7.93;2.22;;;6.00;87.60;;;;;;5115496;28;20048;-72
2023/03/05 06:27:10;;;;;;;7.07;2.50;;;6.00;87.60;;;;;;5115923;28;20032;-73
2023/03/05 06:29:36;;;;;;;7.63;2.50;;;6.00;87.70;;;;;;5115736;28;20055;-73
2023/03/05 06:32:03;;;;;;;5.38;2.60;;;6.00;87.80;;;;;;5115485;28;20100;-73
2023/03/05 06:34:28;;;;;;;7.90;3.33;;;6.00;87.90;;;;;;5115646;28;20024;-73
2023/03/05 06:36:54;;;;;;;5.47;2.75;;;6.00;87.80;;;;;;5115564;28;20032;-73
2023/03/05 06:39:20;;;;;;;7.30;3.10;;;6.00;87.90;;;;;;5114529;28;20028;-73
2023/03/05 06:41:45;;;;;;;5.57;3.08;;;6.00;87.90;;;;;;5114630;28;20058;-72
2023/03/05 06:44:11;;;;;;;6.20;3.55;;;6.00;88.20;;;;;;5097533;28;20047;-73
2023/03/05 06:46:38;;;;;;;8.27;3.80;;;6.00;88.50;;;;;;5114456;28;20028;-73
2023/03/05 06:49:04;;;;;;;9.25;4.05;;;6.00;88.60;;;;;;5115339;28;20055;-73
2023/03/05 06:51:35;;;;;;;8.70;3.70;;;6.00;88.60;;;;;;5114332;28;20024;-73
2023/03/05 06:54:14;;;;;;;6.88;3.38;;;6.00;89.10;;;;;;5115342;28;20053;-72
2023/03/05 06:56:44;;;;;;;11.32;3.53;;;6.00;89.00;;;;;;5115240;28;20027;-73
2023/03/05 06:59:11;;;;;;;7.15;3.67;;;6.00;89.20;;;;;;5114296;28;20038;-73
2023/03/05 07:01:37;;;;;;;9.35;3.42;;;6.00;89.40;;;;;;5115119;28;20031;-73
2023/03/05 07:04:03;;;;;;;8.80;3.55;;;5.90;89.30;;;;;;5114016;28;20024;-73
2023/03/05 07:06:34;;;;;;;7.03;3.85;;;6.00;89.70;;;;;;5114002;28;20027;-73
2023/03/05 07:09:00;;;;;;;8.88;3.75;;;6.00;89.80;;;;;;5114883;28;20035;-73
2023/03/05 07:11:26;;;;;;;6.22;3.67;;;6.00;90.30;;;;;;5113860;28;20049;-72
2023/03/05 07:13:52;;;;;;;9.40;3.95;;;6.00;90.00;;;;;;5114868;28;20020;-73
2023/03/05 07:16:29;;;;;;;6.90;3.80;;;6.00;90.10;;;;;;5114831;28;20043;-73
2023/03/05 07:18:56;;;;;;;8.65;4.45;;;6.00;90.50;;;;;;5114796;28;20092;-72
2023/03/05 07:21:25;;;;;;;8.73;3.88;;;5.90;90.20;;;;;;5114674;28;20034;-73
2023/03/05 07:23:57;;;;;;;7.35;3.80;;;5.90;90.20;;;;;;5114663;28;20020;-73
2023/03/05 07:26:23;;;;;;;7.57;3.80;;;6.00;90.30;;;;;;5114617;28;20028;-73
2023/03/05 07:28:48;;;;;;;6.18;3.53;;;6.00;90.20;;;;;;5114643;28;20091;-73
2023/03/05 07:31:20;;;;;;;8.35;4.15;;;6.00;90.20;;;;;;5114247;28;20052;-73
2023/03/05 07:33:49;;;;;;;10.25;4.30;;;6.10;90.20;;;;;;5114461;28;20017;-73
2023/03/05 07:36:17;;;;;;;8.80;4.57;;;6.10;90.60;;;;;;5113703;28;20072;-74
2023/03/05 07:38:43;;;;;;;7.28;4.05;;;6.10;90.20;;;;;;5114404;28;20020;-73
2023/03/05 07:41:12;;;;;;;10.07;4.80;;;6.10;90.20;;;;;;5114243;28;20035;-74
2023/03/05 07:43:38;;;;;;;7.97;4.00;;;6.10;90.30;;;;;;5114285;28;20024;-74
2023/03/05 07:46:06;;;;;;;7.90;4.03;;;6.10;90.40;;;;;;5114327;28;20035;-73
2023/03/05 07:48:32;;;;;;;9.80;4.15;;;6.10;90.40;;;;;;5113205;28;20039;-74
2023/03/05 07:51:05;;;;;;;7.95;4.18;;;6.10;90.30;;;;;;5113013;28;20028;-73
2023/03/05 07:53:31;;;;;;;7.90;4.22;;;6.20;90.40;;;;;;5114151;28;20047;-73
2023/03/05 07:55:57;;;;;;;8.00;3.75;;;6.20;90.40;;;;;;5114062;28;20024;-73
2023/03/05 07:58:22;;;;;;;10.25;4.63;;;6.20;90.40;;;;;;5114048;28;20036;-73
2023/03/05 08:00:48;;;;;;;7.18;3.63;;;6.20;90.50;;;;;;5113996;28;20034;-73
2023/03/05 08:03:14;;;;;;;7.05;4.28;;;6.20;90.50;;;;;;5113952;28;20032;-73
2023/03/05 08:05:40;;;;;;;6.50;3.97;;;6.20;90.70;;;;;;5113030;28;20032;-73
2023/03/05 08:08:07;;;;;;;8.40;3.95;;;6.30;90.70;;;;;;5112598;28;20088;-73
2023/03/05 08:10:33;;;;;;;13.07;4.43;;;6.30;90.60;;;;;;5113763;28;20054;-73
2023/03/05 08:12:59;;;;;;;10.15;4.05;;;6.30;90.70;;;;;;5113795;28;20017;-73
2023/03/05 08:15:25;;;;;;;6.70;3.88;;;6.30;90.60;;;;;;5113926;28;20028;-74
2023/03/05 08:17:50;;;;;;;8.60;4.05;;;6.40;90.60;;;;;;5113779;28;20024;-73
2023/03/05 08:20:18;;;;;;;6.13;4.00;;;6.40;90.60;;;;;;5113691;28;20039;-73
2023/03/05 08:22:43;;;;;;;7.97;4.25;;;6.40;90.60;;;;;;5113679;28;20026;-73
2023/03/05 08:25:10;;;;;;;7.90;3.95;;;6.50;90.50;;;;;;5112633;28;20024;-73
2023/03/05 08:27:44;;;;;;;6.88;3.22;;;6.50;90.40;;;;;;5113671;28;20024;-73
2023/03/05 08:30:17;;;;;;;5.85;3.55;;;6.50;90.40;;;;;;5113645;28;20075;-73
2023/03/05 08:32:43;;;;;;;5.80;2.97;;;6.50;90.20;;;;;;5113422;28;20058;-74
2023/03/05 08:35:09;;;;;;;5.63;2.80;;;6.60;90.10;;;;;;5113700;28;20024;-73
2023/03/05 08:37:35;;;;;;;4.25;2.63;;;6.60;90.00;;;;;;5113545;28;20021;-73
2023/03/05 08:40:01;;;;;;;5.80;3.08;;;6.60;89.60;;;;;;5113650;28;20192;-74
2023/03/05 08:42:27;;;;;;;5.43;3.03;;;6.60;90.10;;;;;;5113540;28;20032;-74
2023/03/05 08:44:52;;;;;;;5.85;2.85;;;6.60;89.50;;;;;;5113470;28;20024;-73
2023/03/05 08:47:19;;;;;;;7.32;2.70;;;6.60;89.60;;;;;;5114828;28;20079;-74
2023/03/05 08:49:45;;;;;;;4.53;3.03;;;6.60;89.70;;;;;;5099994;28;20158;-73
2023/03/05 08:52:10;;;;;;;6.03;2.60;;;6.70;90.00;;;;;;5117499;28;20024;-74
2023/03/05 08:54:36;;;;;;;3.63;2.42;;;6.70;90.00;;;;;;5117289;28;20039;-74
2023/03/05 08:57:02;;;;;;;5.88;2.20;;;6.70;90.10;;;;;;5117457;28;20024;-73
2023/03/05 08:59:28;;;;;;;4.90;2.50;;;6.80;90.10;;;;;;5117490;28;20021;-73
2023/03/05 09:01:54;;;;;;;6.63;2.80;;;6.90;90.20;;;;;;5117384;28;20028;-73
2023/03/05 09:04:19;;;;;;;8.90;3.00;;;6.90;90.00;;;;;;5117380;28;20061;-72
2023/03/05 09:06:45;;;;;;;8.43;2.95;;;7.00;90.40;;;;;;5116242;28;20028;-74
2023/03/05 09:09:12;;;;;;;6.25;3.42;;;7.00;89.70;;;;;;5117235;28;20028;-74
2023/03/05 09:11:38;;;;;;;6.72;3.38;;;7.10;89.40;;;;;;5117141;28;20047;-74
2023/03/05 09:14:05;;;;;;;6.60;3.30;;;7.10;89.30;;;;;;5117251;28;20028;-74
2023/03/05 09:16:31;;;;;;;4.22;2.40;;;7.10;88.90;;;;;;5117078;28;20024;-74
2023/03/05 09:18:58;;;;;;;6.85;2.90;;;7.10;88.40;;;;;;5117080;28;20047;-74
2023/03/05 09:21:23;;;;;;;8.20;3.08;;;7.10;88.00;;;;;;5116154;28;20028;-74
2023/03/05 09:23:49;;;;;;;4.65;2.70;;;7.10;87.70;;;;;;5115991;28;20032;-74
2023/03/05 09:26:18;;;;;;;8.00;3.10;;;7.10;87.80;;;;;;5116872;28;20032;-74
2023/03/05 09:28:44;;;;;;;7.47;3.15;;;7.10;87.70;;;;;;5099269;28;20028;-74
2023/03/05 09:31:10;;;;;;;7.53;3.60;;;7.20;87.70;;;;;;5116559;28;20078;-74
2023/03/05 09:33:36;;;;;;;9.32;4.05;;;7.30;87.50;;;;;;5116847;28;20019;-74
2023/03/05 09:36:03;;;;;;;6.25;3.78;;;7.30;87.10;;;;;;5116738;28;20020;-74
2023/03/05 09:38:29;;;;;;;8.10;3.67;;;7.30;86.80;;;;;;5115638;28;20035;-73
2023/03/05 09:41:02;;;;;;;7.95;4.13;;;7.30;86.50;;;;;;5116676;28;20032;-73
2023/03/05 09:43:46;;;;;;;;;;;7.30;86.70;;;;;;5116080;28;20055;-73
2023/03/05 09:46:29;;;;;;;6.28;4.20;;;7.30;86.20;;;;;;5116667;28;19939;-73
2023/03/05 09:49:13;;;;;;;7.80;4.20;;;7.20;86.00;;;;;;5116771;28;20031;-73
2023/03/05 09:51:40;;;;;;;7.10;3.63;;;7.10;86.10;;;;;;5116602;28;20028;-74
2023/03/05 09:54:23;;;;;;;8.48;3.67;;;7.10;86.70;;;;;;5116611;28;20028;-73
2023/03/05 09:56:55;;;;;;;5.45;3.40;;;7.10;86.50;;;;;;5116554;28;20024;-73
2023/03/05 09:59:24;;;;;;;7.57;3.75;;;7.10;86.00;;;;;;5115770;28;20016;-73
2023/03/05 10:01:51;;;;;;;6.28;2.92;;;7.10;86.20;;;;;;5115295;28;20390;-73
2023/03/05 10:04:27;;;;;;;6.22;3.58;;;7.20;86.30;;;;;;5115237;28;20016;-74
2023/03/05 10:07:04;;;;;;;11.95;3.92;;;7.20;85.90;;;;;;5116242;28;20024;-73
2023/03/05 10:09:53;;;;;;;10.18;3.25;;;7.30;85.70;;;;;;5116111;28;20020;-73
2023/03/05 10:12:47;;;;;;;6.13;2.70;;;7.30;85.20;;;;;;5115068;28;20028;-74
2023/03/05 10:15:42;;;;;;;6.63;2.83;;;7.40;84.80;;;;;;5111764;28;20032;-73
2023/03/05 10:18:17;;;;;;;4.63;2.50;;;7.30;84.80;;;;;;5116039;28;20019;-73
2023/03/05 10:20:55;;;;;;;6.07;2.63;;;7.30;85.00;;;;;;5115959;28;20048;-73
2023/03/05 10:24:02;;;;;;;5.63;2.67;;;7.30;85.40;;;;;;5115933;28;20031;-73
2023/03/05 10:26:57;;;;;;;4.43;2.50;;;7.30;85.60;;;;;;5033902;28;20030;-74
2023/03/05 10:29:38;;;;;;;4.72;2.40;;;7.20;85.90;;;;;;5115123;28;20036;-73
2023/03/05 10:32:19;;;;;;;4.10;2.20;;;7.20;86.70;;;;;;5114326;28;20100;-74
2023/03/05 10:35:14;;;;;;;3.53;1.80;;;7.10;87.10;;;;;;5115682;28;20083;-74
2023/03/05 10:38:16;;;;;;;3.65;1.70;;;7.00;87.80;;;;;;5115706;28;20072;-73
2023/03/05 10:40:47;;;;;;;3.88;1.58;;;6.90;87.00;;;;;;5115629;28;20091;-73
2023/03/05 10:43:19;;;;;;;6.18;2.42;;;6.70;88.20;;;;;;5115436;28;20027;-73
2023/03/05 10:45:50;;;;;;;5.72;2.25;;;6.70;89.30;;;;;;5115496;28;20083;-74
2023/03/05 10:48:19;;;;;;;3.40;2.08;;;6.60;89.90;;;;;;5115464;28;20024;-73
2023/03/05 10:50:54;;;;;;;3.83;2.20;;;6.60;90.10;;;;;;5115300;28;20024;-73
2023/03/05 10:53:52;;;;;;;3.88;2.20;;;6.60;90.50;;;;;;5115374;28;20085;-74
2023/03/05 10:56:21;;;;;;;3.33;1.95;;;6.60;90.50;;;;;;5087632;28;20059;-73
2023/03/05 10:58:47;;;;;;;3.20;2.00;;;6.60;90.90;;;;;;5115170;28;20043;-73
2023/03/05 11:01:14;;;;;;;5.97;2.40;;;6.60;90.80;;;;;;5115274;28;20471;-73
2023/03/05 11:03:48;;;;;;;4.40;2.42;;;6.70;91.00;;;;;;5115085;28;20016;-74
2023/03/05 11:06:17;;;;;;;4.90;2.30;;;6.70;91.00;;;;;;5115219;28;20028;-73
2023/03/05 11:08:43;;;;;;;3.97;1.95;;;6.80;90.90;;;;;;5114933;28;20096;-73
2023/03/05 11:11:09;;;;;;;3.90;2.40;;;6.90;90.90;;;;;;5113797;28;20039;-74
2023/03/05 11:13:55;;;;;;;4.30;2.08;;;7.00;91.20;;;;;;5115015;28;20516;-74
2023/03/05 11:16:23;;;;;;;3.45;1.83;;;7.10;91.00;;;;;;5115018;28;20041;-74
2023/03/05 11:19:09;;;;;;;3.10;1.75;;;7.10;90.80;;;;;;5114790;28;20046;-74
2023/03/05 11:21:34;;;;;;;2.22;1.40;;;7.20;90.80;;;;;;5113714;28;20028;-74
2023/03/05 11:24:04;;;;;;;3.20;1.40;;;7.20;90.60;;;;;;5114600;28;20058;-74
2023/03/05 11:26:30;;;;;;;4.15;1.42;;;7.30;90.50;;;;;;5113666;28;20024;-74
2023/03/05 11:28:59;;;;;;;2.40;1.02;;;7.20;89.80;;;;;;5113727;28;20024;-74
2023/03/05 11:31:32;;;;;;;2.55;1.10;;;7.20;89.80;;;;;;5114296;28;20031;-74
2023/03/05 11:34:00;;;;;;;2.10;1.05;;;7.20;89.30;;;;;;5114659;28;20062;-74
2023/03/05 11:36:49;;;;;;;5.25;1.10;;;7.30;89.20;;;;;;5114578;28;20024;-74
2023/03/05 11:39:16;;;;;;;2.15;1.00;;;7.40;89.40;;;;;;5101908;28;20039;-74
2023/03/05 11:41:43;;;;;;;1.83;0.80;;;7.40;89.10;;;;;;5114381;28;20032;-74
2023/03/05 11:44:14;;;;;;;2.65;0.90;;;7.40;89.10;;;;;;5114332;28;20031;-74
2023/03/05 11:46:45;;;;;;;3.33;0.95;;;7.40;88.50;;;;;;5114342;28;20085;-73
2023/03/05 11:49:17;;;;;;;1.48;0.73;;;7.50;88.10;;;;;;5114319;28;20020;-73
2023/03/05 11:52:10;;;;;;;4.47;1.10;;;7.50;88.10;;;;;;5114159;28;20027;-74
2023/03/05 11:54:51;;;;;;;2.75;1.13;;;7.60;87.80;;;;;;5113493;28;20066;-74
2023/03/05 11:57:17;;;;;;;2.05;1.00;;;7.60;87.60;;;;;;5114278;28;20020;-74
2023/03/05 11:59:44;;;;;;;1.80;0.93;;;7.70;87.40;;;;;;5114116;28;20028;-74
2023/03/05 12:02:20;;;;;;;1.02;0.73;;;7.70;87.70;;;;;;5114037;28;20024;-74
2023/03/05 12:04:47;;;;;;;1.77;0.73;;;7.80;87.50;;;;;;5113994;28;20085;-74
2023/03/05 12:07:16;;;;;;;2.40;0.70;;;7.90;86.60;;;;;;5114021;28;20039;-74
2023/03/05 12:09:46;;;;;;;1.77;0.73;;;7.90;86.20;;;;;;5113813;28;20076;-74
2023/03/05 12:12:34;;;;;;;2.22;0.80;;;8.00;86.30;;;;;;5113823;28;20083;-73
2023/03/05 12:15:24;;;;;;;3.00;0.70;;;8.00;85.90;;;;;;5113892;28;20356;-74
2023/03/05 12:18:26;;;;;;;1.75;0.90;;;8.10;84.60;;;;;;5112804;28;20042;-74
2023/03/05 12:20:56;;;;;;;4.65;0.90;;;8.10;84.30;;;;;;5113819;28;20039;-74
2023/03/05 12:23:22;;;;;;;1.67;1.02;;;8.10;84.60;;;;;;5113482;28;20131;-74
2023/03/05 12:25:58;;;;;;;1.55;0.80;;;8.10;84.50;;;;;;5113641;28;20024;-73
2023/03/05 12:28:32;;;;;;;2.17;0.90;;;8.20;83.70;;;;;;5112626;28;20039;-74
2023/03/05 12:31:01;;;;;;;1.52;0.70;;;8.20;83.80;;;;;;5113531;28;20024;-74
2023/03/05 12:33:32;;;;;;;4.32;1.20;;;8.20;83.10;;;;;;5113394;28;20044;-74
2023/03/05 12:36:19;;;;;;;2.92;0.73;;;8.20;83.00;;;;;;5112617;28;20028;-74
2023/03/05 12:38:53;;;;;;;3.17;0.88;;;8.20;83.30;;;;;;5113564;28;20048;-74
2023/03/05 12:41:21;;;;;;;1.67;0.80;;;8.30;83.10;;;;;;5113569;28;20031;-74
2023/03/05 12:44:05;;;;;;;1.20;0.85;;;8.30;83.00;;;;;;5113456;28;20036;-74
2023/03/05 12:46:37;;;;;;;1.90;0.70;;;8.40;82.60;;;;;;5113433;28;20028;-74
2023/03/05 12:49:17;;;;;;;2.80;0.88;;;8.40;81.10;;;;;;5113423;28;20024;-74
2023/03/05 12:51:46;;;;;;;1.60;0.77;;;8.50;81.20;;;;;;5113358;28;20032;-74
2023/03/05 12:54:26;;;;;;;1.38;0.80;;;8.50;81.30;;;;;;5113409;28;20024;-74
2023/03/05 12:56:55;;;;;;;3.35;0.88;;;8.60;80.90;;;;;;5113535;28;20035;-74
2023/03/05 12:59:26;;;;;;;1.20;0.70;;;8.50;78.50;;;;;;5113348;28;20020;-74
2023/03/05 13:02:00;;;;;;;2.10;1.03;;;8.50;79.70;;;;;;5113381;28;20039;-74
2023/03/05 13:04:30;;;;;;;1.58;1.02;;;8.50;79.50;;;;;;5113323;28;20020;-74
2023/03/05 13:07:16;;;;;;;1.75;0.88;;;8.50;78.20;;;;;;5113308;28;20060;-74